Daleville, Alabama
Current Conditions -  °F | °C
As of 5:58 PM on Friday 24 Oct 2014 (Local Time) from KOZR Reporting Station
Clear Clear  
Wind Chill: 70°   Ceiling: Unl
Heat Index: 70°   Visibility: 10mi
Dew Point: 45°   Wind: 3mph
Humidity: 40%   Direction: 330°NNW
Pressure: 30"   Gusts: NA
Location:  31.31°N, 85.71°W
Report Text: KOZR 242258Z AUTO 33003KT 10SM CLR 21/07 A3000 RMK AO2 SLP160 T02130072
Loading
Personal Weather Stations






























Interactive Weather Map New forecast layout! Learn more

10-Day Weather Forecast

Advertisements
Track Severe Weather on mobile